Time;durP1;ratioP1;P1;durP2;ratioP2;P2;SDS_P1;SDS_P2;PMS_P1;PMS_P2;Temp;Humidity;BMP_temperature;BMP_pressure;BME280_temperature;BME280_humidity;BME280_pressure;Samples;Min_cycle;Max_cycle;Signal;HPM_P1;HPM_P2
2022/12/06 00:00:34;;;;;;;;;;;;;;;4.39;94.47168;102282.4;;;;-76
2022/12/06 00:04:20;;;;;;;5.5;1.8;;;;;;;;;;;;;-75
2022/12/06 00:05:31;;;;;;;;;;;;;;;4.37;94.56348;102290.5;;;;-75
2022/12/06 00:10:33;;;;;;;;;;;;;;;4.36;94.5166;102288.7;;;;-75
2022/12/06 00:15:31;;;;;;;;;;;;;;;4.36;94.5166;102285.1;;;;-74
2022/12/06 00:20:31;;;;;;;;;;;;;;;4.34;94.48145;102291.1;;;;-76
2022/12/06 00:25:31;;;;;;;;;;;;;;;4.34;94.48145;102304.5;;;;-76
2022/12/06 00:30:31;;;;;;;;;;;;;;;4.33;94.49902;102300;;;;-75
2022/12/06 00:34:21;;;;;;;4.6;1.7;;;;;;;;;;;;;-75
2022/12/06 00:35:31;;;;;;;;;;;;;;;4.31;94.49512;102294.4;;;;-77
2022/12/06 00:40:31;;;;;;;;;;;;;;;4.29;94.5332;102287.5;;;;-75
2022/12/06 00:45:31;;;;;;;;;;;;;;;4.28;94.5332;102288;;;;-75
2022/12/06 00:50:31;;;;;;;;;;;;;;;4.27;94.46582;102280.6;;;;-74
2022/12/06 00:55:31;;;;;;;;;;;;;;;4.25;94.49414;102280.2;;;;-75
2022/12/06 01:00:34;;;;;;;;;;;;;;;4.24;94.46875;102277.7;;;;-74
2022/12/06 01:04:21;;;;;;;3.4;1.7;;;;;;;;;;;;;-76
2022/12/06 01:05:31;;;;;;;;;;;;;;;4.2;94.61328;102274;;;;-75
2022/12/06 01:10:31;;;;;;;;;;;;;;;4.19;94.48047;102269;;;;-74
2022/12/06 01:15:31;;;;;;;;;;;;;;;4.14;94.62012;102269;;;;-75
2022/12/06 01:20:32;;;;;;;;;;;;;;;4.11;94.59277;102274.3;;;;-76
2022/12/06 01:25:31;;;;;;;;;;;;;;;4.07;94.62793;102270.8;;;;-75
2022/12/06 01:30:31;;;;;;;;;;;;;;;4.05;94.55957;102271.4;;;;-75
2022/12/06 01:34:20;;;;;;;3.7;1.3;;;;;;;;;;;;;-75
2022/12/06 01:35:32;;;;;;;;;;;;;;;4.02;94.59473;102274.3;;;;-75
2022/12/06 01:40:31;;;;;;;;;;;;;;;4.01;94.60352;102277;;;;-76
2022/12/06 01:45:31;;;;;;;;;;;;;;;4;94.59277;102270;;;;-76
2022/12/06 01:50:34;;;;;;;;;;;;;;;4;94.61426;102265.6;;;;-76
2022/12/06 01:55:32;;;;;;;;;;;;;;;3.98;94.57617;102261.3;;;;-75
2022/12/06 02:00:31;;;;;;;;;;;;;;;3.98;94.48926;102260.2;;;;-76
2022/12/06 02:04:19;;;;;;;2.5;1.2;;;;;;;;;;;;;-76
2022/12/06 02:05:31;;;;;;;;;;;;;;;3.98;94.52148;102257.5;;;;-76
2022/12/06 02:10:31;;;;;;;;;;;;;;;3.96;94.53711;102258;;;;-76
2022/12/06 02:15:35;;;;;;;;;;;;;;;3.94;94.60059;102258.2;;;;-75
2022/12/06 02:20:35;;;;;;;;;;;;;;;3.92;94.54199;102254.5;;;;-75
2022/12/06 02:25:43;;;;;;;;;;;;;;;3.91;94.60352;102245.8;;;;-75
2022/12/06 02:30:44;;;;;;;;;;;;;;;3.92;94.65039;102248.4;;;;-75
2022/12/06 02:34:21;;;;;;;3;1.2;;;;;;;;;;;;;-76
2022/12/06 02:35:35;;;;;;;;;;;;;;;3.93;94.52051;102244.2;;;;-76
2022/12/06 02:40:33;;;;;;;;;;;;;;;3.93;94.58594;102245.6;;;;-74
2022/12/06 02:45:33;;;;;;;;;;;;;;;3.92;94.60742;102246.6;;;;-74
2022/12/06 02:50:36;;;;;;;;;;;;;;;3.92;94.81152;102245.5;;;;-75
2022/12/06 02:55:32;;;;;;;;;;;;;;;3.92;94.79199;102249.4;;;;-75
2022/12/06 03:00:38;;;;;;;;;;;;;;;3.92;94.70313;102251.4;;;;-75
2022/12/06 03:04:30;;;;;;;1.7;0.8;;;;;;;;;;;;;-75
2022/12/06 03:05:35;;;;;;;;;;;;;;;3.92;94.59668;102248.4;;;;-75
2022/12/06 03:10:38;;;;;;;;;;;;;;;3.9;94.61426;102250.3;;;;-75
2022/12/06 03:15:39;;;;;;;;;;;;;;;3.88;94.66211;102249;;;;-75
2022/12/06 03:20:41;;;;;;;;;;;;;;;3.85;94.61328;102249;;;;-75
2022/12/06 03:25:31;;;;;;;;;;;;;;;3.83;94.56348;102248.1;;;;-75
2022/12/06 03:30:33;;;;;;;;;;;;;;;3.76;94.62305;102244.8;;;;-76
2022/12/06 03:34:21;;;;;;;2.2;0.8;;;;;;;;;;;;;-76
2022/12/06 03:35:33;;;;;;;;;;;;;;;3.69;94.5752;102239.6;;;;-75
2022/12/06 03:40:32;;;;;;;;;;;;;;;3.59;94.69629;102236.5;;;;-76
2022/12/06 03:45:34;;;;;;;;;;;;;;;3.52;94.77734;102239.6;;;;-76
2022/12/06 03:50:33;;;;;;;;;;;;;;;3.44;94.69434;102235.9;;;;-76
2022/12/06 03:55:31;;;;;;;;;;;;;;;3.4;94.77539;102230.9;;;;-75
2022/12/06 04:00:31;;;;;;;;;;;;;;;3.37;94.74316;102226.5;;;;-75
2022/12/06 04:04:17;;;;;;;2.2;0.9;;;;;;;;;;;;;-74
2022/12/06 04:05:31;;;;;;;;;;;;;;;3.31;94.70117;102233.1;;;;-75
2022/12/06 04:10:31;;;;;;;;;;;;;;;3.28;94.79102;102234.9;;;;-76
2022/12/06 04:15:31;;;;;;;;;;;;;;;3.22;94.78711;102236;;;;-75
2022/12/06 04:23:02;;;;;;;;;;;;;;;3.17;94.74512;102234;;;;-76
2022/12/06 04:25:31;;;;;;;;;;;;;;;3.12;94.78906;102233.5;;;;-76
2022/12/06 04:40:31;;;;;;;;;;;;;;;2.93;94.75781;102228;;;;-75
2022/12/06 04:45:32;;;;;;;;;;;;;;;2.86;94.83887;102227.9;;;;-76
2022/12/06 04:50:31;;;;;;;;;;;;;;;2.79;94.80371;102224.5;;;;-75
2022/12/06 04:55:31;;;;;;;;;;;;;;;2.71;94.83789;102218;;;;-75
2022/12/06 05:00:31;;;;;;;;;;;;;;;2.67;94.875;102210.6;;;;-75
2022/12/06 05:04:15;;;;;;;2.3;0.9;;;;;;;;;;;;;-75
2022/12/06 05:05:31;;;;;;;;;;;;;;;2.6;94.84766;102209.8;;;;-75
2022/12/06 05:10:31;;;;;;;;;;;;;;;2.56;94.88086;102207.7;;;;-76
2022/12/06 05:15:31;;;;;;;;;;;;;;;2.52;94.88379;102208.7;;;;-76
2022/12/06 05:20:31;;;;;;;;;;;;;;;2.52;94.82813;102206.2;;;;-76
2022/12/06 05:25:31;;;;;;;;;;;;;;;2.52;94.83887;102201.6;;;;-76
2022/12/06 05:30:31;;;;;;;;;;;;;;;2.48;94.81934;102203.4;;;;-75
2022/12/06 05:34:16;;;;;;;1.8;0.6;;;;;;;;;;;;;-76
2022/12/06 05:35:31;;;;;;;;;;;;;;;2.47;94.89355;102203.8;;;;-75
2022/12/06 05:40:31;;;;;;;;;;;;;;;2.41;94.87109;102200.4;;;;-75
2022/12/06 05:45:31;;;;;;;;;;;;;;;2.36;94.8584;102200;;;;-75
2022/12/06 05:50:31;;;;;;;;;;;;;;;2.29;95.02637;102201.2;;;;-76
2022/12/06 05:55:31;;;;;;;;;;;;;;;2.23;94.9707;102206.4;;;;-76
2022/12/06 06:00:31;;;;;;;;;;;;;;;2.14;94.85156;102207.5;;;;-76
2022/12/06 06:04:14;;;;;;;2.7;0.9;;;;;;;;;;;;;-76
2022/12/06 06:05:31;;;;;;;;;;;;;;;2.03;94.98047;102210;;;;-77
2022/12/06 06:10:31;;;;;;;;;;;;;;;1.94;94.87207;102206.8;;;;-75
2022/12/06 06:15:31;;;;;;;;;;;;;;;1.87;94.82617;102202.9;;;;-75
2022/12/06 06:20:34;;;;;;;;;;;;;;;1.79;94.81836;102205.3;;;;-75
2022/12/06 06:25:31;;;;;;;;;;;;;;;1.7;94.87402;102205.8;;;;-75
2022/12/06 06:30:31;;;;;;;;;;;;;;;1.66;94.91992;102206;;;;-77
2022/12/06 06:34:14;;;;;;;1.8;0.8;;;;;;;;;;;;;-76
2022/12/06 06:35:31;;;;;;;;;;;;;;;1.61;94.91016;102203.1;;;;-76
2022/12/06 06:40:31;;;;;;;;;;;;;;;1.55;94.60254;102197.8;;;;-75
2022/12/06 06:45:31;;;;;;;;;;;;;;;1.52;94.65234;102200;;;;-75
2022/12/06 06:50:31;;;;;;;;;;;;;;;1.51;94.59473;102198.6;;;;-75
2022/12/06 06:55:31;;;;;;;;;;;;;;;1.43;94.61133;102205;;;;-76
2022/12/06 07:00:31;;;;;;;;;;;;;;;1.39;94.76465;102202.7;;;;-75
2022/12/06 07:04:13;;;;;;;1.8;0.9;;;;;;;;;;;;;-75
2022/12/06 07:05:44;;;;;;;;;;;;;;;;;;;;;
2022/12/06 07:10:31;;;;;;;;;;;;;;;1.3;94.85254;102200.9;;;;-75
2022/12/06 07:15:31;;;;;;;;;;;;;;;1.22;94.72461;102200.6;;;;-75
2022/12/06 07:20:31;;;;;;;;;;;;;;;1.15;94.63281;102199.3;;;;-75
2022/12/06 07:25:31;;;;;;;;;;;;;;;1.09;94.53418;102190.6;;;;-76
2022/12/06 07:30:31;;;;;;;;;;;;;;;1.07;94.62988;102191.8;;;;-75
2022/12/06 07:34:12;;;;;;;2.1;1;;;;;;;;;;;;;-75
2022/12/06 07:35:31;;;;;;;;;;;;;;;1.09;94.49121;102188.3;;;;-75
2022/12/06 07:40:31;;;;;;;;;;;;;;;1.07;94.44434;102187.6;;;;-76
2022/12/06 07:45:31;;;;;;;;;;;;;;;1.1;94.38574;102192.2;;;;-76
2022/12/06 07:50:32;;;;;;;;;;;;;;;1.12;94.51074;102198.7;;;;-75
2022/12/06 07:55:31;;;;;;;;;;;;;;;1.19;94.48145;102197.2;;;;-75
2022/12/06 08:00:32;;;;;;;;;;;;;;;1.27;94.3916;102199.6;;;;-73
2022/12/06 08:04:11;;;;;;;1.6;0.9;;;;;;;;;;;;;-74
2022/12/06 08:05:31;;;;;;;;;;;;;;;1.32;94.52051;102199.8;;;;-75
2022/12/06 08:10:31;;;;;;;;;;;;;;;1.4;94.50781;102202.9;;;;-76
2022/12/06 08:15:31;;;;;;;;;;;;;;;1.51;94.44531;102201.5;;;;-75
2022/12/06 08:20:31;;;;;;;;;;;;;;;1.59;94.55859;102198.7;;;;-75
2022/12/06 08:25:31;;;;;;;;;;;;;;;1.63;94.6123;102195.4;;;;-76
2022/12/06 08:30:31;;;;;;;;;;;;;;;1.7;94.51953;102199.5;;;;-76
2022/12/06 08:34:10;;;;;;;2.2;0.9;;;;;;;;;;;;;-76
2022/12/06 08:35:31;;;;;;;;;;;;;;;1.76;94.44531;102201.9;;;;-75
2022/12/06 08:40:31;;;;;;;;;;;;;;;1.82;94.57617;102203;;;;-76
2022/12/06 08:45:31;;;;;;;;;;;;;;;1.87;94.51465;102202.8;;;;-75
2022/12/06 08:50:31;;;;;;;;;;;;;;;1.93;94.42969;102203.7;;;;-75
2022/12/06 08:55:31;;;;;;;;;;;;;;;2.02;94.39355;102206.7;;;;-75
2022/12/06 09:00:31;;;;;;;;;;;;;;;2.12;94.13477;102204.3;;;;-75
2022/12/06 09:04:13;;;;;;;2.3;1;;;;;;;;;;;;;-74
2022/12/06 09:05:31;;;;;;;;;;;;;;;2.22;94.15723;102198.3;;;;-74
2022/12/06 09:10:30;;;;;;;;;;;;;;;2.31;94.23047;102204.2;;;;-74
2022/12/06 09:15:31;;;;;;;;;;;;;;;2.46;94.17773;102201.6;;;;-76
2022/12/06 09:20:31;;;;;;;;;;;;;;;2.64;94.21582;102205.1;;;;-76
2022/12/06 09:25:31;;;;;;;;;;;;;;;2.74;93.57813;102200.8;;;;-75
2022/12/06 09:30:31;;;;;;;;;;;;;;;2.79;93.82813;102188.9;;;;-75
2022/12/06 09:34:09;;;;;;;2.5;1;;;;;;;;;;;;;-75
2022/12/06 09:35:31;;;;;;;;;;;;;;;2.82;93.72559;102185.4;;;;-75
2022/12/06 09:40:34;;;;;;;;;;;;;;;2.98;93.79395;102187.6;;;;-75
2022/12/06 09:45:36;;;;;;;;;;;;;;;3.27;93.09863;102184.9;;;;-75
2022/12/06 09:50:37;;;;;;;;;;;;;;;3.51;91.56641;102179.3;;;;-75
2022/12/06 09:55:37;;;;;;;;;;;;;;;3.5;91.12207;102181.8;;;;-75
2022/12/06 10:00:35;;;;;;;;;;;;;;;3.52;91.39453;102179;;;;-74
2022/12/06 10:04:18;;;;;;;2.8;1.1;;;;;;;;;;;;;-76
2022/12/06 10:05:46;;;;;;;;;;;;;;;3.54;90.98633;102174.4;;;;-75
2022/12/06 10:10:36;;;;;;;;;;;;;;;3.61;91.03613;102170.9;;;;-74
2022/12/06 10:15:36;;;;;;;;;;;;;;;3.72;90.76465;102170.1;;;;-75
2022/12/06 10:20:33;;;;;;;;;;;;;;;3.85;91.29102;102167.4;;;;-75
2022/12/06 10:25:35;;;;;;;;;;;;;;;3.95;90.95508;102164.1;;;;-75
2022/12/06 10:30:33;;;;;;;;;;;;;;;4.06;90.58496;102157.4;;;;-75
2022/12/06 10:34:10;;;;;;;2.4;1.1;;;;;;;;;;;;;-75
2022/12/06 10:35:34;;;;;;;;;;;;;;;4.25;90.19238;102156.5;;;;-75
2022/12/06 10:40:33;;;;;;;;;;;;;;;4.42;89.5957;102158.1;;;;-75
2022/12/06 10:50:32;;;;;;;;;;;;;;;4.81;90.41699;102147.7;;;;-75
2022/12/06 10:55:34;;;;;;;;;;;;;;;4.87;89.97363;102145;;;;-75
2022/12/06 11:00:31;;;;;;;;;;;;;;;4.91;89.62207;102144.3;;;;-75
2022/12/06 11:04:10;;;;;;;3.3;1.1;;;;;;;;;;;;;-76
2022/12/06 11:05:34;;;;;;;;;;;;;;;4.94;89.79199;102139.1;;;;-75
2022/12/06 11:10:34;;;;;;;;;;;;;;;4.96;89.77441;102136.2;;;;-75
2022/12/06 11:15:32;;;;;;;;;;;;;;;5.01;89.86914;102135.4;;;;-75
2022/12/06 11:20:32;;;;;;;;;;;;;;;5.05;89.67188;102124;;;;-75
2022/12/06 11:25:34;;;;;;;;;;;;;;;5.06;89.99121;102122;;;;-76
2022/12/06 11:30:31;;;;;;;;;;;;;;;5.02;90.19922;102123;;;;-75
2022/12/06 11:34:08;;;;;;;2.8;1.3;;;;;;;;;;;;;-75
2022/12/06 11:35:31;;;;;;;;;;;;;;;4.98;90.125;102114;;;;-75
2022/12/06 11:40:34;;;;;;;;;;;;;;;5.01;90.36133;102110.5;;;;-74
2022/12/06 11:45:33;;;;;;;;;;;;;;;5.11;90.96973;102103.5;;;;-75
2022/12/06 11:50:31;;;;;;;;;;;;;;;5.3;91.56543;102103;;;;-75
2022/12/06 11:55:32;;;;;;;;;;;;;;;5.45;90.97559;102097.9;;;;-75
2022/12/06 12:00:31;;;;;;;;;;;;;;;5.63;91.15527;102097.3;;;;-75
2022/12/06 12:04:16;;;;;;;2.3;1.3;;;;;;;;;;;;;-74
2022/12/06 12:05:33;;;;;;;;;;;;;;;5.7;90.77832;102094.7;;;;-75
2022/12/06 12:10:33;;;;;;;;;;;;;;;5.76;90.45313;102093.8;;;;-74
2022/12/06 12:15:33;;;;;;;;;;;;;;;5.79;90.79883;102086;;;;-75
2022/12/06 12:20:32;;;;;;;;;;;;;;;5.78;91.4502;102086.7;;;;-75
2022/12/06 12:25:32;;;;;;;;;;;;;;;5.82;91.03223;102086.6;;;;-75
2022/12/06 12:30:33;;;;;;;;;;;;;;;5.85;91.33203;102083.8;;;;-75
2022/12/06 12:34:21;;;;;;;3.3;1;;;;;;;;;;;;;-75
2022/12/06 12:35:31;;;;;;;;;;;;;;;5.84;91.58301;102076.7;;;;-75
2022/12/06 12:40:32;;;;;;;;;;;;;;;5.88;91.43652;102075.5;;;;-75
2022/12/06 12:45:31;;;;;;;;;;;;;;;5.89;91.13477;102067.5;;;;-75
2022/12/06 12:50:31;;;;;;;;;;;;;;;5.91;91.26953;102063.4;;;;-75
2022/12/06 12:55:32;;;;;;;;;;;;;;;5.92;91.69629;102056.2;;;;-75
2022/12/06 13:00:32;;;;;;;;;;;;;;;5.95;91.76758;102051.4;;;;-74
2022/12/06 13:04:07;;;;;;;4.9;0.9;;;;;;;;;;;;;-75
2022/12/06 13:05:32;;;;;;;;;;;;;;;5.99;91.55957;102046.6;;;;-75
2022/12/06 13:10:34;;;;;;;;;;;;;;;6.05;91.64746;102048;;;;-75
2022/12/06 13:15:34;;;;;;;;;;;;;;;6.06;91.07227;102037.1;;;;-75
2022/12/06 13:20:33;;;;;;;;;;;;;;;6.13;91.22852;102039.5;;;;-75
2022/12/06 13:25:32;;;;;;;;;;;;;;;6.15;91.02637;102037.7;;;;-75
2022/12/06 13:30:33;;;;;;;;;;;;;;;6.19;91.42676;102027.8;;;;-76
2022/12/06 13:34:08;;;;;;;2.1;0.7;;;;;;;;;;;;;-77
2022/12/06 13:35:33;;;;;;;;;;;;;;;6.19;90.62988;102022;;;;-76
2022/12/06 13:40:54;;;;;;;;;;;;;;;6.2;90.59766;102022.8;;;;-75
2022/12/06 13:45:48;;;;;;;;;;;;;;;6.22;91.12695;102021.7;;;;-76
2022/12/06 13:50:42;;;;;;;;;;;;;;;6.21;90.69727;102016.5;;;;-76
2022/12/06 13:55:48;;;;;;;;;;;;;;;6.23;91.27051;102016.4;;;;-76
2022/12/06 14:00:42;;;;;;;;;;;;;;;6.26;90.77441;102009.1;;;;-76
2022/12/06 14:04:08;;;;;;;1.7;0.6;;;;;;;;;;;;;-76
2022/12/06 14:05:42;;;;;;;;;;;;;;;6.28;90.96387;102007.5;;;;-76
2022/12/06 14:10:30;;;;;;;;;;;;;;;6.28;90.88965;102000.8;;;;-76
2022/12/06 14:15:31;;;;;;;;;;;;;;;6.28;90.95313;102007.6;;;;-76
2022/12/06 14:20:33;;;;;;;;;;;;;;;6.27;91.28027;102008.3;;;;-76
2022/12/06 14:25:31;;;;;;;;;;;;;;;6.28;90.96387;102006.7;;;;-76
2022/12/06 14:30:31;;;;;;;;;;;;;;;6.26;90.89648;101999.5;;;;-77
2022/12/06 14:34:09;;;;;;;2;0.7;;;;;;;;;;;;;-77
2022/12/06 14:35:34;;;;;;;;;;;;;;;6.2;90.61914;101989;;;;-76
2022/12/06 14:43:00;;;;;;;;;;;;;;;6.11;90.76563;101986.5;;;;-76
2022/12/06 14:45:31;;;;;;;;;;;;;;;6.05;90.88574;101988.7;;;;-76
2022/12/06 14:50:35;;;;;;;;;;;;;;;6.03;91.03027;101993.3;;;;-77
2022/12/06 14:55:32;;;;;;;;;;;;;;;6.01;91.33398;101983.7;;;;-75
2022/12/06 15:00:33;;;;;;;;;;;;;;;5.98;91.43555;101978.4;;;;-76
2022/12/06 15:04:09;;;;;;;2.4;0.6;;;;;;;;;;;;;-76
2022/12/06 15:05:39;;;;;;;;;;;;;;;5.93;91.34961;101975.2;;;;-75
2022/12/06 15:10:33;;;;;;;;;;;;;;;5.84;91.75781;101972.8;;;;-75
2022/12/06 15:15:46;;;;;;;;;;;;;;;5.76;93.04883;101982;;;;-74
2022/12/06 15:20:30;;;;;;;;;;;;;;;5.71;92.87305;101976.3;;;;-75
2022/12/06 15:25:30;;;;;;;;;;;;;;;5.67;93.38867;101969.9;;;;-75
2022/12/06 15:30:31;;;;;;;;;;;;;;;5.61;94.05078;101960.8;;;;-75
2022/12/06 15:34:16;;;;;;;2.4;0.8;;;;;;;;;;;;;-74
2022/12/06 15:35:31;;;;;;;;;;;;;;;5.53;94.41406;101963.8;;;;-72
2022/12/06 15:40:31;;;;;;;;;;;;;;;5.46;95.06348;101962.5;;;;-74
2022/12/06 15:45:31;;;;;;;;;;;;;;;5.4;95.21289;101962.9;;;;-74
2022/12/06 15:50:30;;;;;;;;;;;;;;;5.38;95.20898;101953.7;;;;-75
2022/12/06 15:55:31;;;;;;;;;;;;;;;5.37;95.13965;101958.3;;;;-75
2022/12/06 16:00:31;;;;;;;;;;;;;;;5.33;95.0791;101953.3;;;;-75
2022/12/06 16:04:07;;;;;;;1;0.6;;;;;;;;;;;;;-74
2022/12/06 16:05:31;;;;;;;;;;;;;;;5.32;95.16504;101959.9;;;;-74
2022/12/06 16:10:31;;;;;;;;;;;;;;;5.3;95.16895;101946.4;;;;-77
2022/12/06 16:15:31;;;;;;;;;;;;;;;5.29;95.26563;101949;;;;-76
2022/12/06 16:25:52;;;;;;;;;;;;;;;5.29;95.25684;101948.7;;;;-74
2022/12/06 16:30:52;;;;;;;;;;;;;;;5.15;95.35254;101949.6;;;;-76
2022/12/06 16:34:19;;;;;;;1.2;0.6;;;;;;;;;;;;;-75
2022/12/06 16:35:46;;;;;;;;;;;;;;;5.12;94.98828;101949.8;;;;-75
2022/12/06 16:40:44;;;;;;;;;;;;;;;5.09;94.50391;101954.1;;;;-75
2022/12/06 16:45:42;;;;;;;;;;;;;;;5;94.55957;101955.7;;;;-73
2022/12/06 16:50:41;;;;;;;;;;;;;;;4.93;94.43555;101953;;;;-74
2022/12/06 16:55:41;;;;;;;;;;;;;;;4.86;94.34277;101947.6;;;;-76
2022/12/06 17:00:41;;;;;;;;;;;;;;;4.77;94.32324;101944.4;;;;-74
2022/12/06 17:04:07;;;;;;;1.3;0.6;;;;;;;;;;;;;-74
2022/12/06 17:05:41;;;;;;;;;;;;;;;4.67;94.14063;101946.3;;;;-74
2022/12/06 17:10:41;;;;;;;;;;;;;;;4.55;94.2666;101946.8;;;;-75
2022/12/06 17:15:41;;;;;;;;;;;;;;;4.39;94.17676;101934;;;;-75
2022/12/06 17:20:41;;;;;;;;;;;;;;;4.3;94.2334;101932.4;;;;-75
2022/12/06 17:25:41;;;;;;;;;;;;;;;4.17;94.28125;101934.4;;;;-75
2022/12/06 17:30:42;;;;;;;;;;;;;;;4.11;94.35254;101925.9;;;;-75
2022/12/06 17:34:07;;;;;;;1.2;0.6;;;;;;;;;;;;;-75
2022/12/06 17:35:41;;;;;;;;;;;;;;;4;94.37402;101924.8;;;;-75
2022/12/06 17:40:41;;;;;;;;;;;;;;;3.96;94.32227;101922.2;;;;-77
2022/12/06 17:45:41;;;;;;;;;;;;;;;3.87;94.43457;101929.6;;;;-75
2022/12/06 17:50:41;;;;;;;;;;;;;;;3.83;94.38965;101921.9;;;;-74
2022/12/06 17:55:44;;;;;;;;;;;;;;;3.74;94.74121;101929.5;;;;-75
2022/12/06 18:00:41;;;;;;;;;;;;;;;3.72;94.55078;101938.7;;;;-75
2022/12/06 18:04:06;;;;;;;6.7;3.3;;;;;;;;;;;;;-74
2022/12/06 18:05:43;;;;;;;;;;;;;;;3.73;94.55273;101939.2;;;;-76
2022/12/06 18:10:41;;;;;;;;;;;;;;;3.7;94.55957;101940.1;;;;-75
2022/12/06 18:15:47;;;;;;;;;;;;;;;3.69;94.58984;101937;;;;-75
2022/12/06 18:20:43;;;;;;;;;;;;;;;3.68;94.90039;101941.1;;;;-75
2022/12/06 18:25:44;;;;;;;;;;;;;;;3.69;95.06445;101941.6;;;;-75
2022/12/06 18:30:43;;;;;;;;;;;;;;;3.68;95.18262;101939.8;;;;-75
2022/12/06 18:34:07;;;;;;;6.4;2.8;;;;;;;;;;;;;-75
2022/12/06 18:35:42;;;;;;;;;;;;;;;3.66;94.9502;101938.3;;;;-75
2022/12/06 18:40:42;;;;;;;;;;;;;;;3.67;94.80273;101941;;;;-76
2022/12/06 18:45:42;;;;;;;;;;;;;;;3.59;95.00098;101948.7;;;;-76
2022/12/06 18:50:52;;;;;;;;;;;;;;;3.57;94.96289;101955;;;;-75
2022/12/06 19:00:51;;;;;;;;;;;;;;;3.44;94.98926;101950;;;;-75
2022/12/06 19:11:59;;;;;;;;;;;;;;;3.45;94.65527;101958.2;;;;-74
2022/12/06 19:16:15;;;;;;;;;;;;;;;3.27;94.77734;101954.3;;;;-75
2022/12/06 19:21:06;;;;;;;;;;;;;;;3.2;95.00195;101945.4;;;;-77
2022/12/06 19:26:06;;;;;;;;;;;;;;;3.14;95.08496;101947.3;;;;-76
2022/12/06 19:31:07;;;;;;;;;;;;;;;3.14;95.00781;101947.5;;;;-76
2022/12/06 19:34:08;;;;;;;4.6;2.3;;;;;;;;;;;;;-75
2022/12/06 19:36:08;;;;;;;;;;;;;;;3.05;94.96973;101950.8;;;;-75
2022/12/06 19:41:07;;;;;;;;;;;;;;;3.01;94.71973;101947.6;;;;-76
2022/12/06 19:46:14;;;;;;;;;;;;;;;2.97;94.8418;101951.8;;;;-76
2022/12/06 19:51:05;;;;;;;;;;;;;;;2.96;94.99121;101953.8;;;;-75
2022/12/06 19:56:06;;;;;;;;;;;;;;;2.97;94.93945;101954.2;;;;-75
2022/12/06 20:01:09;;;;;;;;;;;;;;;2.98;94.77832;101962;;;;-76
2022/12/06 20:04:04;;;;;;;3.6;2;;;;;;;;;;;;;-76
2022/12/06 20:06:09;;;;;;;;;;;;;;;2.98;95.04883;101962.2;;;;-76
2022/12/06 20:11:59;;;;;;;;;;;;;;;2.95;95.00195;101959.5;;;;-75
2022/12/06 20:16:09;;;;;;;;;;;;;;;2.92;94.88574;101951.3;;;;-75
2022/12/06 20:21:11;;;;;;;;;;;;;;;2.88;94.88672;101952.3;;;;-76
2022/12/06 20:26:05;;;;;;;;;;;;;;;2.84;94.92188;101960.6;;;;-75
2022/12/06 20:31:11;;;;;;;;;;;;;;;2.84;94.87695;101959;;;;-76
2022/12/06 20:34:04;;;;;;;4.1;2.1;;;;;;;;;;;;;-75
2022/12/06 20:36:05;;;;;;;;;;;;;;;2.79;94.87695;101958.8;;;;-75
2022/12/06 20:41:09;;;;;;;;;;;;;;;2.76;94.7627;101963.4;;;;-74
2022/12/06 20:46:10;;;;;;;;;;;;;;;2.73;94.88672;101956.9;;;;-75
2022/12/06 20:51:05;;;;;;;;;;;;;;;2.66;94.95703;101965.4;;;;-75
2022/12/06 20:56:09;;;;;;;;;;;;;;;2.67;94.85156;101966.8;;;;-75
2022/12/06 21:01:05;;;;;;;;;;;;;;;2.68;94.77734;101966.3;;;;-76
2022/12/06 21:04:03;;;;;;;4;1.7;;;;;;;;;;;;;-77
2022/12/06 21:06:07;;;;;;;;;;;;;;;2.64;94.83203;101963;;;;-77
2022/12/06 21:11:06;;;;;;;;;;;;;;;2.62;94.80664;101953.7;;;;-77
2022/12/06 21:16:09;;;;;;;;;;;;;;;2.57;94.83984;101948.4;;;;-77
2022/12/06 21:21:07;;;;;;;;;;;;;;;2.53;94.75586;101947.3;;;;-76
2022/12/06 21:26:08;;;;;;;;;;;;;;;2.44;94.82227;101949.2;;;;-76
2022/12/06 21:31:05;;;;;;;;;;;;;;;2.43;94.89648;101956;;;;-77
2022/12/06 21:34:04;;;;;;;4.2;1.9;;;;;;;;;;;;;-77
2022/12/06 21:36:09;;;;;;;;;;;;;;;2.47;94.85059;101952;;;;-76
2022/12/06 21:41:13;;;;;;;;;;;;;;;2.43;94.88574;101948.4;;;;-77
2022/12/06 21:46:10;;;;;;;;;;;;;;;2.42;94.87305;101955.5;;;;-77
2022/12/06 21:51:09;;;;;;;;;;;;;;;2.44;94.85547;101949.4;;;;-76
2022/12/06 21:56:07;;;;;;;;;;;;;;;2.42;94.80762;101949.1;;;;-78
2022/12/06 22:01:10;;;;;;;;;;;;;;;2.37;94.70898;101946.9;;;;-76
2022/12/06 22:04:03;;;;;;;4.1;1.8;;;;;;;;;;;;;-77
2022/12/06 22:06:05;;;;;;;;;;;;;;;2.32;94.97852;101949.3;;;;-77
2022/12/06 22:11:08;;;;;;;;;;;;;;;2.29;94.89648;101950.3;;;;-77
2022/12/06 22:16:07;;;;;;;;;;;;;;;2.2;94.77051;101947;;;;-76
2022/12/06 22:21:07;;;;;;;;;;;;;;;2.15;95.06055;101954.2;;;;-75
2022/12/06 22:26:08;;;;;;;;;;;;;;;2.14;95.13477;101954;;;;-77
2022/12/06 22:31:14;;;;;;;;;;;;;;;2.11;95.01855;101958.9;;;;-77
2022/12/06 22:34:01;;;;;;;4;1.5;;;;;;;;;;;;;-77
2022/12/06 22:36:06;;;;;;;;;;;;;;;2.09;94.88477;101959.7;;;;-78
2022/12/06 22:41:05;;;;;;;;;;;;;;;2.06;94.84668;101964.7;;;;-77
2022/12/06 22:46:10;;;;;;;;;;;;;;;2.05;94.98242;101975.7;;;;-76
2022/12/06 22:51:14;;;;;;;;;;;;;;;2.05;94.98535;101968;;;;-77
2022/12/06 22:56:06;;;;;;;;;;;;;;;2.07;95.02148;101963.1;;;;-77
2022/12/06 23:01:09;;;;;;;;;;;;;;;2.04;94.88574;101957.6;;;;-76
2022/12/06 23:04:04;;;;;;;3.1;1.4;;;;;;;;;;;;;-76
2022/12/06 23:06:05;;;;;;;;;;;;;;;2.04;94.92871;101961.6;;;;-76
2022/12/06 23:11:07;;;;;;;;;;;;;;;2.01;95.05273;101964.6;;;;-76
2022/12/06 23:16:06;;;;;;;;;;;;;;;2.04;94.94824;101970;;;;-76
2022/12/06 23:21:09;;;;;;;;;;;;;;;2.07;94.83789;101974.8;;;;-76
2022/12/06 23:26:08;;;;;;;;;;;;;;;2.1;94.82422;101974.2;;;;-75
2022/12/06 23:31:09;;;;;;;;;;;;;;;2.13;95.00293;101968.9;;;;-76
2022/12/06 23:34:00;;;;;;;3.5;1.2;;;;;;;;;;;;;-76
2022/12/06 23:36:10;;;;;;;;;;;;;;;2.14;94.87305;101972.6;;;;-76
2022/12/06 23:41:08;;;;;;;;;;;;;;;2.12;94.87988;101974.6;;;;-75
2022/12/06 23:46:05;;;;;;;;;;;;;;;2.12;94.93652;101982.9;;;;-76
2022/12/06 23:51:06;;;;;;;;;;;;;;;2.11;94.86719;101972.4;;;;-76
2022/12/06 23:56:07;;;;;;;;;;;;;;;2.15;95.06055;101962.4;;;;-75
